createdAt,value
2024-01-16T00:01:46.538Z,2.67
2024-01-16T00:04:14.213Z,2.53
2024-01-16T00:06:43.298Z,2.30
2024-01-16T00:09:11.902Z,2.70
2024-01-16T00:11:45.003Z,2.10
2024-01-16T00:14:12.253Z,2.67
2024-01-16T00:16:47.125Z,2.37
2024-01-16T00:19:14.719Z,2.60
2024-01-16T00:21:42.802Z,1.77
2024-01-16T00:24:09.827Z,2.60
2024-01-16T00:26:37.382Z,2.83
2024-01-16T00:29:04.442Z,2.63
2024-01-16T00:31:31.421Z,2.47
2024-01-16T00:33:58.429Z,2.70
2024-01-16T00:36:25.420Z,2.47
2024-01-16T00:38:52.345Z,2.57
2024-01-16T00:41:19.278Z,2.50
2024-01-16T00:43:46.729Z,2.27
2024-01-16T00:46:13.605Z,2.57
2024-01-16T00:48:40.676Z,2.37
2024-01-16T00:51:07.581Z,2.43
2024-01-16T00:53:34.530Z,2.37
2024-01-16T00:56:01.397Z,2.77
2024-01-16T00:58:28.300Z,2.30
2024-01-16T01:00:55.657Z,2.30
2024-01-16T01:03:22.680Z,2.40
2024-01-16T01:05:49.752Z,2.37
2024-01-16T01:10:43.671Z,2.50
2024-01-16T01:13:10.664Z,2.40
2024-01-16T01:15:37.679Z,2.17
2024-01-16T01:18:05.742Z,2.00
2024-01-16T01:20:32.814Z,2.43
2024-01-16T01:23:01.045Z,1.67
2024-01-16T01:25:28.560Z,2.20
2024-01-16T01:27:55.437Z,3.10
2024-01-16T01:30:22.302Z,1.70
2024-01-16T01:32:49.295Z,2.07
2024-01-16T01:35:18.800Z,2.20
2024-01-16T01:37:45.854Z,2.13
2024-01-16T01:40:13.893Z,2.30
2024-01-16T01:42:45.044Z,1.90
2024-01-16T01:45:12.554Z,2.10
2024-01-16T01:47:45.999Z,2.27
2024-01-16T01:50:14.938Z,2.30
2024-01-16T01:52:42.835Z,2.17
2024-01-16T01:55:13.418Z,2.57
2024-01-16T01:57:41.202Z,1.90
2024-01-16T02:00:09.401Z,2.53
2024-01-16T02:02:36.366Z,2.50
2024-01-16T02:05:04.828Z,2.53
2024-01-16T02:07:34.600Z,2.60
2024-01-16T02:10:01.698Z,2.00
2024-01-16T02:12:28.625Z,2.50
2024-01-16T02:14:55.538Z,1.90
2024-01-16T02:17:22.916Z,2.03
2024-01-16T02:19:49.842Z,2.30
2024-01-16T02:22:22.640Z,2.07
2024-01-16T02:24:50.475Z,2.33
2024-01-16T02:27:17.470Z,2.30
2024-01-16T02:29:44.866Z,2.40
2024-01-16T02:32:14.385Z,2.60
2024-01-16T02:34:42.526Z,2.10
2024-01-16T02:37:09.730Z,2.43
2024-01-16T02:39:36.761Z,2.50
2024-01-16T02:42:03.805Z,2.43
2024-01-16T02:44:30.802Z,1.80
2024-01-16T02:46:57.799Z,2.00
2024-01-16T02:49:26.999Z,2.57
2024-01-16T02:51:54.224Z,2.43
2024-01-16T02:54:21.442Z,2.47
2024-01-16T02:56:48.440Z,2.43
2024-01-16T02:59:15.380Z,2.10
2024-01-16T03:01:42.379Z,2.00
2024-01-16T03:04:10.079Z,2.17
2024-01-16T03:06:37.222Z,1.83
2024-01-16T03:09:04.201Z,2.03
2024-01-16T03:11:33.720Z,2.60
2024-01-16T03:14:00.917Z,2.50
2024-01-16T03:16:28.597Z,2.23
2024-01-16T03:18:55.730Z,1.83
2024-01-16T03:21:22.687Z,2.07
2024-01-16T03:23:50.038Z,2.30
2024-01-16T03:26:17.836Z,2.30
2024-01-16T03:28:45.198Z,2.33
2024-01-16T03:31:15.348Z,2.30
2024-01-16T03:33:44.137Z,1.70
2024-01-16T03:36:13.642Z,2.00
2024-01-16T03:38:41.078Z,2.03
2024-01-16T03:41:08.858Z,2.27
2024-01-16T03:43:36.470Z,2.10
2024-01-16T03:46:03.953Z,2.30
2024-01-16T03:48:31.056Z,2.10
2024-01-16T03:50:58.218Z,2.20
2024-01-16T03:53:25.346Z,2.00
2024-01-16T03:55:52.913Z,2.10
2024-01-16T03:58:19.935Z,2.13
2024-01-16T04:00:47.674Z,1.80
2024-01-16T04:03:14.628Z,1.90
2024-01-16T04:05:42.098Z,1.03
2024-01-16T04:08:09.148Z,2.03
2024-01-16T04:10:36.658Z,2.00
2024-01-16T04:13:04.378Z,2.17
2024-01-16T04:15:31.482Z,2.20
2024-01-16T04:17:58.547Z,2.23
2024-01-16T04:20:25.545Z,2.00
2024-01-16T04:22:52.714Z,2.00
2024-01-16T04:25:19.602Z,1.93
2024-01-16T04:27:47.149Z,2.13
2024-01-16T04:30:14.596Z,1.73
2024-01-16T04:32:41.787Z,2.00
2024-01-16T04:35:09.878Z,1.83
2024-01-16T04:37:36.830Z,2.40
2024-01-16T04:40:05.870Z,2.17
2024-01-16T04:42:33.830Z,1.70
2024-01-16T04:45:00.710Z,2.13
2024-01-16T04:47:28.928Z,2.20
2024-01-16T04:49:55.914Z,2.07
2024-01-16T04:52:22.955Z,2.20
2024-01-16T04:54:49.927Z,2.30
2024-01-16T04:57:16.957Z,2.20
2024-01-16T04:59:43.918Z,2.07
2024-01-16T05:02:10.938Z,1.90
2024-01-16T05:04:41.001Z,2.03
2024-01-16T05:07:07.912Z,2.20
2024-01-16T05:09:34.818Z,2.10
2024-01-16T05:12:02.625Z,1.87
2024-01-16T05:14:29.625Z,2.30
2024-01-16T05:16:56.515Z,1.60
2024-01-16T05:19:23.432Z,2.40
2024-01-16T05:21:50.392Z,2.13
2024-01-16T05:24:17.363Z,2.20
2024-01-16T05:26:44.875Z,2.33
2024-01-16T05:29:13.175Z,2.20
2024-01-16T05:31:43.331Z,2.20
2024-01-16T05:34:11.420Z,2.07
2024-01-16T05:36:38.904Z,2.20
2024-01-16T05:39:06.092Z,2.37
2024-01-16T05:41:36.735Z,2.47
2024-01-16T05:44:04.787Z,2.53
2024-01-16T05:46:35.316Z,1.80
2024-01-16T05:49:02.463Z,2.17
2024-01-16T05:51:32.737Z,2.00
2024-01-16T05:53:59.625Z,2.07
2024-01-16T05:56:26.610Z,2.20
2024-01-16T05:58:53.657Z,2.30
2024-01-16T06:01:20.676Z,2.07
2024-01-16T06:03:49.999Z,2.10
2024-01-16T06:06:17.684Z,2.43
2024-01-16T06:08:44.768Z,2.17
2024-01-16T06:11:14.500Z,1.97
2024-01-16T06:13:42.130Z,2.33
2024-01-16T06:16:11.582Z,2.57
2024-01-16T06:18:38.656Z,1.90
2024-01-16T06:21:05.977Z,2.23
2024-01-16T06:23:32.877Z,2.47
2024-01-16T06:26:01.665Z,2.40
2024-01-16T06:28:28.692Z,2.23
2024-01-16T06:30:55.791Z,2.30
2024-01-16T06:33:22.894Z,1.90
2024-01-16T06:35:53.879Z,2.17
2024-01-16T06:38:21.596Z,2.20
2024-01-16T06:40:48.647Z,2.40
2024-01-16T06:43:17.089Z,2.37
2024-01-16T06:45:45.307Z,2.27
2024-01-16T06:48:12.681Z,2.53
2024-01-16T06:50:39.862Z,1.90
2024-01-16T06:53:06.942Z,2.43
2024-01-16T06:55:33.964Z,1.87
2024-01-16T06:58:00.910Z,2.10
2024-01-16T07:00:28.139Z,2.70
2024-01-16T07:02:57.965Z,2.10
2024-01-16T07:05:25.247Z,2.00
2024-01-16T07:07:52.243Z,2.17
2024-01-16T07:10:19.461Z,2.47
2024-01-16T07:12:46.884Z,2.20
2024-01-16T07:15:14.550Z,2.30
2024-01-16T07:17:41.963Z,2.50
2024-01-16T07:20:09.805Z,2.47
2024-01-16T07:22:40.457Z,2.60
2024-01-16T07:25:08.531Z,2.87
2024-01-16T07:27:35.619Z,2.00
2024-01-16T07:30:05.548Z,2.90
2024-01-16T07:32:33.386Z,2.43
2024-01-16T07:35:00.825Z,2.50
2024-01-16T07:37:27.762Z,2.60
2024-01-16T07:39:54.662Z,2.43
2024-01-16T07:42:21.540Z,2.90
2024-01-16T07:44:48.483Z,2.50
2024-01-16T07:47:15.419Z,2.23
2024-01-16T07:49:43.239Z,2.47
2024-01-16T07:52:10.475Z,2.63
2024-01-16T07:54:37.396Z,3.20
2024-01-16T07:57:04.583Z,2.50
2024-01-16T07:59:31.581Z,2.87
2024-01-16T08:01:58.586Z,2.30
2024-01-16T08:04:25.617Z,2.50
2024-01-16T08:06:54.197Z,2.63
2024-01-16T08:09:21.403Z,3.00
2024-01-16T08:11:48.714Z,2.77
2024-01-16T08:14:15.803Z,2.77
2024-01-16T08:16:42.789Z,3.03
2024-01-16T08:19:09.780Z,3.40
2024-01-16T08:21:37.370Z,2.63
2024-01-16T08:24:04.518Z,3.20
2024-01-16T08:26:31.510Z,3.00
2024-01-16T08:28:59.148Z,2.83
2024-01-16T08:31:26.038Z,3.47
2024-01-16T08:33:54.515Z,3.07
2024-01-16T08:36:21.669Z,3.20
2024-01-16T08:38:48.772Z,3.00
2024-01-16T08:41:15.912Z,3.47
2024-01-16T08:43:42.909Z,3.47
2024-01-16T08:46:09.891Z,3.30
2024-01-16T08:48:37.484Z,3.07
2024-01-16T08:51:09.336Z,3.80
2024-01-16T08:53:36.439Z,3.47
2024-01-16T08:56:03.694Z,3.90
2024-01-16T08:58:30.782Z,4.27
2024-01-16T09:00:57.687Z,3.60
2024-01-16T09:03:24.632Z,3.33
2024-01-16T09:05:51.690Z,3.80
2024-01-16T09:08:18.703Z,4.23
2024-01-16T09:10:45.577Z,3.27
2024-01-16T09:13:13.000Z,3.70
2024-01-16T09:15:40.760Z,4.30
2024-01-16T09:18:07.784Z,3.80
2024-01-16T09:20:35.749Z,3.47
2024-01-16T09:23:03.516Z,3.53
2024-01-16T09:25:30.975Z,4.13
2024-01-16T09:27:57.973Z,3.83
2024-01-16T09:30:24.882Z,3.40
2024-01-16T09:32:51.905Z,3.50
2024-01-16T09:35:19.103Z,3.27
2024-01-16T09:37:46.100Z,3.63
2024-01-16T09:40:14.746Z,3.53
2024-01-16T09:42:44.367Z,3.03
2024-01-16T09:45:12.496Z,3.10
2024-01-16T09:47:40.202Z,3.23
2024-01-16T09:50:07.705Z,3.23
2024-01-16T09:52:35.511Z,2.90
2024-01-16T09:55:02.397Z,2.93
2024-01-16T09:57:31.022Z,2.87
2024-01-16T09:59:59.058Z,3.10
2024-01-16T10:02:26.557Z,3.00
2024-01-16T10:04:53.521Z,3.13
2024-01-16T10:07:28.820Z,3.50
2024-01-16T10:09:59.087Z,3.13
2024-01-16T10:12:26.753Z,3.10
2024-01-16T10:14:55.503Z,3.40
2024-01-16T10:17:22.669Z,3.13
2024-01-16T10:19:52.618Z,3.60
2024-01-16T10:22:27.510Z,3.20
2024-01-16T10:25:17.994Z,3.20
2024-01-16T10:27:45.354Z,3.20
2024-01-16T10:30:12.867Z,3.47
2024-01-16T10:32:44.620Z,3.13
2024-01-16T10:35:14.364Z,3.20
2024-01-16T10:37:49.054Z,3.30
2024-01-16T10:40:23.730Z,3.10
2024-01-16T10:43:01.594Z,3.17
2024-01-16T10:45:29.039Z,2.90
2024-01-16T10:48:07.805Z,3.23
2024-01-16T10:50:38.187Z,3.20
2024-01-16T10:53:10.230Z,2.90
2024-01-16T10:55:52.243Z,3.00
2024-01-16T10:58:25.239Z,2.90
2024-01-16T11:00:55.684Z,2.67
2024-01-16T11:03:52.126Z,3.30
2024-01-16T11:06:20.616Z,3.00
2024-01-16T11:08:49.929Z,2.87
2024-01-16T11:11:18.606Z,2.50
2024-01-16T11:13:47.787Z,2.57
2024-01-16T11:16:15.531Z,3.47
2024-01-16T11:18:42.747Z,3.40
2024-01-16T11:21:17.963Z,3.23
2024-01-16T11:23:47.655Z,2.80
2024-01-16T11:26:38.819Z,2.90
2024-01-16T11:32:13.343Z,2.90
2024-01-16T11:34:45.422Z,2.73
2024-01-16T11:37:16.418Z,2.90
2024-01-16T11:39:43.271Z,3.30
2024-01-16T11:42:10.788Z,3.13
2024-01-16T11:44:38.667Z,3.50
2024-01-16T11:47:06.444Z,2.90
2024-01-16T11:49:33.844Z,2.80
2024-01-16T11:52:01.193Z,3.03
2024-01-16T11:54:28.268Z,2.70
2024-01-16T11:57:13.843Z,2.50
2024-01-16T12:00:14.204Z,2.80
2024-01-16T12:02:55.308Z,2.40
2024-01-16T12:05:23.215Z,2.30
2024-01-16T12:07:53.378Z,2.10
2024-01-16T12:10:23.330Z,2.13
2024-01-16T12:12:52.392Z,3.27
2024-01-16T12:15:21.850Z,2.10
2024-01-16T12:18:00.121Z,2.23
2024-01-16T12:20:32.873Z,2.67
2024-01-16T12:23:05.899Z,2.17
2024-01-16T12:26:00.595Z,1.77
2024-01-16T12:28:31.650Z,1.83
2024-01-16T12:31:01.720Z,2.10
2024-01-16T12:33:29.881Z,1.80
2024-01-16T12:36:05.904Z,1.80
2024-01-16T12:38:33.892Z,2.50
2024-01-16T12:41:03.599Z,2.20
2024-01-16T12:43:32.889Z,2.00
2024-01-16T12:45:59.920Z,1.90
2024-01-16T12:48:28.012Z,2.50
2024-01-16T12:51:08.145Z,2.03
2024-01-16T12:53:37.849Z,2.27
2024-01-16T12:56:05.436Z,2.20
2024-01-16T12:58:38.797Z,2.07
2024-01-16T13:03:56.887Z,2.40
2024-01-16T13:06:24.916Z,1.90
2024-01-16T13:08:53.446Z,2.33
2024-01-16T13:11:32.715Z,2.10
2024-01-16T13:14:05.329Z,2.53
2024-01-16T13:16:32.332Z,2.30
2024-01-16T13:19:03.602Z,2.37
2024-01-16T13:21:30.537Z,2.20
2024-01-16T13:23:57.448Z,2.33
2024-01-16T13:26:24.307Z,2.23
2024-01-16T13:28:51.760Z,2.40
2024-01-16T13:31:18.788Z,2.27
2024-01-16T13:33:45.801Z,3.00
2024-01-16T13:36:13.036Z,4.67
2024-01-16T13:38:39.933Z,4.73
2024-01-16T13:41:06.830Z,4.00
2024-01-16T13:43:33.733Z,7.07
2024-01-16T13:46:00.731Z,8.50
2024-01-16T13:48:27.709Z,4.73
2024-01-16T13:50:54.848Z,6.67
2024-01-16T13:53:21.745Z,3.30
2024-01-16T13:55:48.653Z,2.90
2024-01-16T13:58:15.848Z,2.20
2024-01-16T14:00:43.125Z,2.73
2024-01-16T14:03:10.682Z,2.50
2024-01-16T14:05:37.960Z,2.20
2024-01-16T14:08:05.841Z,2.83
2024-01-16T14:10:32.820Z,2.60
2024-01-16T14:12:59.720Z,2.67
2024-01-16T14:15:26.850Z,2.77
2024-01-16T14:17:56.719Z,2.47
2024-01-16T14:20:28.206Z,3.40
2024-01-16T14:22:56.577Z,2.50
2024-01-16T14:25:23.755Z,2.00
2024-01-16T14:28:05.936Z,2.83
2024-01-16T14:30:36.711Z,2.37
2024-01-16T14:33:04.198Z,2.60
2024-01-16T14:35:31.176Z,2.57
2024-01-16T14:37:58.142Z,2.50
2024-01-16T14:40:28.820Z,3.23
2024-01-16T14:43:00.373Z,2.30
2024-01-16T14:45:28.634Z,2.33
2024-01-16T14:47:56.010Z,2.57
2024-01-16T14:50:23.493Z,2.57
2024-01-16T14:52:52.945Z,2.60
2024-01-16T14:55:24.058Z,2.47
2024-01-16T14:57:56.653Z,2.57
2024-01-16T15:00:28.034Z,2.60
2024-01-16T15:02:55.630Z,2.67
2024-01-16T15:05:23.424Z,2.73
2024-01-16T15:07:54.663Z,5.97
2024-01-16T15:10:22.483Z,4.10
2024-01-16T15:12:49.595Z,5.03
2024-01-16T15:15:17.216Z,6.53
2024-01-16T15:17:45.445Z,4.33
2024-01-16T15:20:12.897Z,3.17
2024-01-16T15:22:47.290Z,2.60
2024-01-16T15:25:16.790Z,2.67
2024-01-16T15:27:46.087Z,3.43
2024-01-16T15:30:15.058Z,3.00
2024-01-16T15:32:42.414Z,4.10
2024-01-16T15:35:09.550Z,4.33
2024-01-16T15:37:36.599Z,5.70
2024-01-16T15:40:07.808Z,5.37
2024-01-16T15:42:37.759Z,7.60
2024-01-16T15:45:05.696Z,5.53
2024-01-16T15:47:32.855Z,4.20
2024-01-16T15:50:00.785Z,3.00
2024-01-16T15:52:28.624Z,2.80
2024-01-16T15:54:55.526Z,2.33
2024-01-16T15:57:22.474Z,2.40
2024-01-16T15:59:49.373Z,2.57
2024-01-16T16:02:16.377Z,3.17
2024-01-16T16:04:43.354Z,2.90
2024-01-16T16:07:10.262Z,2.67
2024-01-16T16:09:37.239Z,2.30
2024-01-16T16:12:06.573Z,2.80
2024-01-16T16:14:33.652Z,2.87
2024-01-16T16:17:03.341Z,2.70
2024-01-16T16:19:31.445Z,3.03
2024-01-16T16:21:58.574Z,2.93
2024-01-16T16:24:25.503Z,10.83
2024-01-16T16:26:54.840Z,19.20
2024-01-16T16:29:21.946Z,18.30
2024-01-16T16:31:48.976Z,8.03
2024-01-16T16:34:16.301Z,12.17
2024-01-16T16:36:44.116Z,13.40
2024-01-16T16:39:11.523Z,37.77
2024-01-16T16:41:41.980Z,27.37
2024-01-16T16:44:08.967Z,15.20
2024-01-16T16:46:36.712Z,18.17
2024-01-16T16:49:03.993Z,8.80
2024-01-16T16:51:31.065Z,5.63
2024-01-16T16:53:58.356Z,5.00
2024-01-16T16:56:25.801Z,5.90
2024-01-16T16:58:53.579Z,5.60
2024-01-16T17:01:21.353Z,5.77
2024-01-16T17:03:53.400Z,5.70
2024-01-16T17:06:20.781Z,4.67
2024-01-16T17:08:48.041Z,4.67
2024-01-16T17:11:15.132Z,6.90
2024-01-16T17:13:46.836Z,13.97
2024-01-16T17:16:18.147Z,14.07
2024-01-16T17:18:45.374Z,10.57
2024-01-16T17:21:14.308Z,6.90
2024-01-16T17:23:41.524Z,4.87
2024-01-16T17:26:08.525Z,4.73
2024-01-16T17:28:35.549Z,4.10
2024-01-16T17:31:03.180Z,5.07
2024-01-16T17:33:30.958Z,5.50
2024-01-16T17:36:04.272Z,6.00
2024-01-16T17:38:32.052Z,5.73
2024-01-16T17:41:00.293Z,6.20
2024-01-16T17:43:27.397Z,5.50
2024-01-16T17:45:54.245Z,6.20
2024-01-16T17:48:21.434Z,6.47
2024-01-16T17:50:48.673Z,7.23
2024-01-16T17:53:15.898Z,5.63
2024-01-16T17:55:43.688Z,6.10
2024-01-16T17:58:11.978Z,6.57
2024-01-16T18:00:39.477Z,5.90
2024-01-16T18:03:15.750Z,5.77
2024-01-16T18:05:50.589Z,6.70
2024-01-16T18:08:18.316Z,5.70
2024-01-16T18:10:45.325Z,5.00
2024-01-16T18:13:12.266Z,5.00
2024-01-16T18:15:39.173Z,4.57
2024-01-16T18:18:08.551Z,4.53
2024-01-16T18:20:36.263Z,4.80
2024-01-16T18:23:07.517Z,5.23
2024-01-16T18:25:35.358Z,4.83
2024-01-16T18:28:02.282Z,5.47
2024-01-16T18:30:29.354Z,5.70
2024-01-16T18:32:57.936Z,5.50
2024-01-16T18:35:24.892Z,5.97
2024-01-16T18:37:54.530Z,5.93
2024-01-16T18:40:21.575Z,6.03
2024-01-16T18:42:48.528Z,6.53
2024-01-16T18:45:19.273Z,7.33
2024-01-16T18:47:49.386Z,6.27
2024-01-16T18:50:18.737Z,8.33
2024-01-16T18:52:46.493Z,8.27
2024-01-16T18:55:14.596Z,10.13
2024-01-16T18:57:43.839Z,11.63
2024-01-16T19:00:16.312Z,11.73
2024-01-16T19:02:45.130Z,13.00
2024-01-16T19:05:13.282Z,13.70
2024-01-16T19:07:45.534Z,12.97
2024-01-16T19:10:14.295Z,12.33
2024-01-16T19:12:49.057Z,12.73
2024-01-16T19:15:19.316Z,13.43
2024-01-16T19:17:52.007Z,12.43
2024-01-16T19:20:23.113Z,12.00
2024-01-16T19:22:51.311Z,10.93
2024-01-16T19:25:18.485Z,8.90
2024-01-16T19:27:48.586Z,7.23
2024-01-16T19:30:16.658Z,7.13
2024-01-16T19:32:45.061Z,7.37
2024-01-16T19:35:13.297Z,6.70
2024-01-16T19:37:43.951Z,6.60
2024-01-16T19:40:13.275Z,6.60
2024-01-16T19:42:40.759Z,6.03
2024-01-16T19:45:10.496Z,7.23
2024-01-16T19:47:40.555Z,7.40
2024-01-16T19:50:20.901Z,7.37
2024-01-16T19:52:52.075Z,6.43
2024-01-16T19:55:22.353Z,6.00
2024-01-16T19:57:49.473Z,6.50
2024-01-16T20:00:17.885Z,6.53
2024-01-16T20:02:45.795Z,5.97
2024-01-16T20:05:16.767Z,7.33
2024-01-16T20:07:47.384Z,7.37
2024-01-16T20:10:15.807Z,9.30
2024-01-16T20:12:45.005Z,10.43
2024-01-16T20:15:14.416Z,9.37
2024-01-16T20:17:42.404Z,8.60
2024-01-16T20:20:11.543Z,6.53
2024-01-16T20:22:38.917Z,6.00
2024-01-16T20:25:06.678Z,6.37
2024-01-16T20:27:34.032Z,5.93
2024-01-16T20:30:01.528Z,5.50
2024-01-16T20:32:28.690Z,6.10
2024-01-16T20:34:55.811Z,6.13
2024-01-16T20:37:22.815Z,5.83
2024-01-16T20:39:49.735Z,5.80
2024-01-16T20:42:16.807Z,5.47
2024-01-16T20:44:44.321Z,5.43
2024-01-16T20:47:11.913Z,5.00
2024-01-16T20:49:38.862Z,4.90
2024-01-16T20:52:06.216Z,5.80
2024-01-16T20:54:33.262Z,4.87
2024-01-16T20:57:00.264Z,6.10
2024-01-16T20:59:27.962Z,5.40
2024-01-16T21:01:55.514Z,6.20
2024-01-16T21:04:22.520Z,6.77
2024-01-16T21:06:49.741Z,7.77
2024-01-16T21:09:17.084Z,7.03
2024-01-16T21:11:44.970Z,5.67
2024-01-16T21:14:12.194Z,5.77
2024-01-16T21:16:39.136Z,4.83
2024-01-16T21:19:06.968Z,6.13
2024-01-16T21:21:34.886Z,5.43
2024-01-16T21:24:03.029Z,5.93
2024-01-16T21:26:30.010Z,5.93
2024-01-16T21:28:57.114Z,5.93
2024-01-16T21:31:24.099Z,5.83
2024-01-16T21:33:51.160Z,5.30
2024-01-16T21:36:18.079Z,5.60
2024-01-16T21:38:45.019Z,5.70
2024-01-16T21:41:13.450Z,5.93
2024-01-16T21:43:41.315Z,6.37
2024-01-16T21:46:08.342Z,6.10
2024-01-16T21:48:36.050Z,6.60
2024-01-16T21:51:03.324Z,6.83
2024-01-16T21:53:30.555Z,7.03
2024-01-16T21:55:57.518Z,6.33
2024-01-16T21:58:24.470Z,6.57
2024-01-16T22:00:53.974Z,6.37
2024-01-16T22:03:21.225Z,7.17
2024-01-16T22:05:48.281Z,6.33
2024-01-16T22:08:15.191Z,7.10
2024-01-16T22:10:43.368Z,7.27
2024-01-16T22:13:12.684Z,7.57
2024-01-16T22:15:39.654Z,6.63
2024-01-16T22:18:06.737Z,6.83
2024-01-16T22:20:33.961Z,7.17
2024-01-16T22:23:01.209Z,7.00
2024-01-16T22:25:29.685Z,7.20
2024-01-16T22:27:58.283Z,7.00
2024-01-16T22:30:27.319Z,7.73
2024-01-16T22:35:22.407Z,6.80
2024-01-16T22:37:50.221Z,7.27
2024-01-16T22:40:19.768Z,9.10
2024-01-16T22:42:46.863Z,8.47
2024-01-16T22:45:14.071Z,8.40
2024-01-16T22:47:43.103Z,8.07
2024-01-16T22:50:10.314Z,8.67
2024-01-16T22:52:37.208Z,7.60
2024-01-16T22:55:05.327Z,7.20
2024-01-16T22:57:33.939Z,7.50
2024-01-16T23:00:01.565Z,6.60
2024-01-16T23:02:30.011Z,7.17
2024-01-16T23:04:57.204Z,7.03
2024-01-16T23:07:24.296Z,6.43
2024-01-16T23:09:51.282Z,6.40
2024-01-16T23:12:18.282Z,6.77
2024-01-16T23:14:45.300Z,6.57
2024-01-16T23:17:13.206Z,6.93
2024-01-16T23:19:40.524Z,7.20
2024-01-16T23:22:08.522Z,7.20
2024-01-16T23:24:35.477Z,7.30
2024-01-16T23:27:02.606Z,6.93
2024-01-16T23:29:32.061Z,6.87
2024-01-16T23:31:58.963Z,6.70
2024-01-16T23:34:26.058Z,6.47
2024-01-16T23:36:53.036Z,6.53
2024-01-16T23:39:19.965Z,6.57
2024-01-16T23:41:46.874Z,7.67
2024-01-16T23:44:14.468Z,6.80
2024-01-16T23:46:41.427Z,6.63
2024-01-16T23:49:08.303Z,6.97
2024-01-16T23:51:35.251Z,7.27
2024-01-16T23:54:03.667Z,6.00
2024-01-16T23:56:31.067Z,6.20
2024-01-16T23:58:58.060Z,6.43
